Zeran (malta) — 9HHJ5 — position and weather

sailwx.info

Track history (hours):
 
Tides and Currents Weather Stations Pressure Air Temp Water Temp Dewpoint Dewpoint Depression Visibility Wind Speed Wind Dir Waves Ship Positions

Zeran (malta)

Last reported at 2015-Apr-01 16:16 UTC. Time now 2015-Apr-02 07:53 UTC.
Position N 42°40' E 009°47'.

Length 148 m; beam 24 m.

Type: Ship (hazmat cat A). MMSI: 249846000.

Date/timePositionNaut miles runAvg speedWind from/ knotsBaromVisibWave heightAir tempDewpointWater temp
2015-Apr-01 16:16N 42°40' E 009°47'7 9.9
2015-Apr-01 15:33N 42°47' E 009°45'10 9.8
2015-Apr-01 14:33N 42°56' E 009°41'10 9.7
2015-Apr-01 13:33N 43°05' E 009°37'10 9.6
2015-Apr-01 12:33N 43°14' E 009°31'9 9.5
2015-Apr-01 11:33N 43°23' E 009°27'10 9.7
2015-Apr-01 10:33N 43°32' E 009°22'10 9.6
2015-Apr-01 09:33N 43°41' E 009°18'10 9.6
2015-Apr-01 08:33N 43°50' E 009°13'1010.2
2015-Apr-01 07:33N 43°60' E 009°08'10 9.6
2015-Apr-01 06:34N 44°08' E 009°03'1010.1
2015-Apr-01 05:33N 44°18' E 008°59'8 7.8
2015-Apr-01 04:34N 44°24' E 008°52'0 0.1
2015-Apr-01 03:29N 44°24' E 008°53'0 0.0
2015-Apr-01 02:32N 44°24' E 008°53'0 0.0
2015-Apr-01 01:32N 44°24' E 008°53'0 0.0
2015-Apr-01 00:32N 44°24' E 008°53'0 0.0
2015-Mar-31 23:32N 44°24' E 008°53'0 0.0
2015-Mar-31 22:29N 44°24' E 008°53'0 0.0
2015-Mar-31 21:29N 44°24' E 008°53'0 0.0
2015-Mar-31 20:32N 44°24' E 008°53'0 0.0
2015-Mar-31 19:32N 44°24' E 008°53'0 0.0
2015-Mar-31 18:29N 44°24' E 008°53'0 0.0
2015-Mar-31 17:32N 44°24' E 008°53'0 0.0
2015-Mar-31 16:32N 44°24' E 008°53'0 0.0
2015-Mar-31 15:32N 44°24' E 008°53'0 0.0
2015-Mar-31 14:32N 44°24' E 008°53'0 0.0
2015-Mar-31 13:32N 44°24' E 008°53'0 0.0
2015-Mar-31 12:32N 44°24' E 008°53'0 0.0
2015-Mar-31 11:29N 44°24' E 008°53'0 0.0
2015-Mar-31 10:32N 44°24' E 008°53'0 0.0
2015-Mar-31 09:32N 44°24' E 008°53'0 0.0
2015-Mar-31 08:32N 44°24' E 008°53'0 0.0
2015-Mar-31 07:32N 44°24' E 008°53'0 0.0
2015-Mar-31 06:29N 44°24' E 008°53'0 0.0
2015-Mar-31 05:32N 44°24' E 008°53'0 0.0
2015-Mar-31 04:29N 44°24' E 008°53'0 0.0
2015-Mar-31 03:26N 44°24' E 008°53'0 0.0
2015-Mar-31 02:29N 44°24' E 008°53'0 0.0
2015-Mar-31 01:29N 44°24' E 008°53'0 0.0
2015-Mar-31 00:32N 44°24' E 008°53'0 0.0
2015-Mar-30 23:32N 44°24' E 008°53'0 0.0
2015-Mar-30 22:32N 44°24' E 008°53'0 0.0
2015-Mar-30 21:32N 44°24' E 008°53'0 0.0
2015-Mar-30 20:32N 44°24' E 008°53'0 0.0
2015-Mar-30 19:32N 44°24' E 008°53'0 0.0
2015-Mar-30 18:29N 44°24' E 008°53'0 0.0
2015-Mar-30 17:32N 44°24' E 008°53'0 0.0
2015-Mar-30 16:32N 44°24' E 008°53'0 0.0
2015-Mar-30 15:32N 44°24' E 008°53'0 0.0
2015-Mar-30 14:32N 44°24' E 008°53'0 0.0
2015-Mar-30 13:32N 44°24' E 008°53'0 0.0
2015-Mar-30 12:32N 44°24' E 008°53'0 0.0
2015-Mar-30 11:32N 44°24' E 008°53'0 0.0
2015-Mar-30 10:32N 44°24' E 008°53'0 0.0
2015-Mar-30 09:29N 44°24' E 008°53'0 0.0
2015-Mar-30 08:29N 44°24' E 008°53'0 0.0
2015-Mar-30 07:32N 44°24' E 008°53'0 0.0
2015-Mar-30 06:32N 44°24' E 008°53'0 0.0
2015-Mar-30 05:29N 44°24' E 008°53'0 0.0
2015-Mar-30 04:32N 44°24' E 008°53'0 0.0
2015-Mar-30 03:32N 44°24' E 008°53'0 0.0
2015-Mar-30 02:32N 44°24' E 008°53'0 0.0
2015-Mar-30 01:32N 44°24' E 008°53'0 0.0
2015-Mar-30 00:23N 44°24' E 008°53'0 0.0
2015-Mar-29 23:29N 44°24' E 008°53'0 0.0
2015-Mar-29 22:32N 44°24' E 008°53'0 0.0
2015-Mar-29 21:32N 44°24' E 008°53'0 0.0
2015-Mar-29 20:32N 44°24' E 008°53'0 0.0
2015-Mar-29 19:32N 44°24' E 008°53'0 0.0
2015-Mar-29 18:32N 44°24' E 008°53'0 0.0
2015-Mar-29 17:32N 44°24' E 008°53'0 0.0
2015-Mar-29 16:32N 44°24' E 008°53'0 0.0
2015-Mar-29 15:29N 44°24' E 008°53'0 0.0
2015-Mar-29 14:32N 44°24' E 008°53'0 0.0
2015-Mar-29 13:05N 44°24' E 008°53'0 0.0
2015-Mar-29 12:26N 44°24' E 008°53'0 0.0
2015-Mar-29 11:29N 44°24' E 008°53'0 0.0
2015-Mar-29 10:32N 44°24' E 008°53'0 0.0
2015-Mar-29 09:33N 44°24' E 008°53'0 0.0
2015-Mar-29 08:33N 44°24' E 008°53'0 0.3
2015-Mar-29 07:33N 44°24' E 008°53'8 7.8
2015-Mar-29 06:33N 44°18' E 008°60'9 9.4
2015-Mar-29 05:33N 44°09' E 009°04'7 7.3
2015-Mar-29 04:33N 44°02' E 009°08'5 5.1
2015-Mar-29 03:33N 43°58' E 009°11'5 5.3
2015-Mar-29 02:33N 43°53' E 009°12'6 5.6
2015-Mar-29 01:33N 43°47' E 009°15'6 5.8
2015-Mar-29 00:33N 43°42' E 009°18'6 5.8
2015-Mar-28 23:33N 43°37' E 009°21'6 5.7
2015-Mar-28 22:33N 43°31' E 009°23'6 6.0
2015-Mar-28 21:33N 43°26' E 009°26'6 6.4
2015-Mar-28 20:33N 43°20' E 009°30'7 6.6
2015-Mar-28 19:33N 43°13' E 009°32'7 7.1
2015-Mar-28 18:33N 43°07' E 009°35'7 6.8
2015-Mar-28 17:33N 43°00' E 009°38'7 7.1
2015-Mar-28 16:33N 42°54' E 009°42'8 7.7
2015-Mar-28 15:33N 42°47' E 009°46'9 8.0
2015-Mar-28 14:25N 42°38' E 009°50'7 8.0
2015-Mar-28 13:33N 42°32' E 009°54'8 7.9
2015-Mar-28 12:33N 42°25' E 009°58'153 9.0
2015-Mar-27 19:30N 40°54' E 012°44'2210.2
2015-Mar-27 17:18N 40°47' E 013°12'7 9.5
2015-Mar-27 16:31N 40°44' E 013°21'9 9.4
2015-Mar-27 15:33N 40°41' E 013°33'9 9.3
2015-Mar-27 14:33N 40°38' E 013°44'9 9.2
2015-Mar-27 13:33N 40°35' E 013°56'9 9.4
2015-Mar-27 12:33N 40°32' E 014°07'9 9.4
2015-Mar-27 11:33N 40°31' E 014°19'11 9.6
2015-Mar-27 10:22N 40°33' E 014°34'4 0.3
2015-Mar-26 21:13N 40°33' E 014°40'2 2.4
2015-Mar-26 20:20N 40°31' E 014°38'11 8.9
2015-Mar-26 19:07N 40°23' E 014°28'610.6
2015-Mar-26 18:33N 40°19' E 014°24'1110.8
2015-Mar-26 17:33N 40°11' E 014°14'1110.9
2015-Mar-26 16:33N 40°02' E 014°05'1110.7
2015-Mar-26 15:31N 39°54' E 013°56'3010.3
2015-Mar-26 12:33N 39°30' E 013°31'4410.0
2015-Mar-26 08:07N 38°57' E 012°53'1710.3
2015-Mar-26 06:26N 38°43' E 012°40'2110.8
2015-Mar-26 04:32N 38°26' E 012°24'1110.6
2015-Mar-26 03:32N 38°19' E 012°14'10 9.9
2015-Mar-26 02:33N 38°11' E 012°07'10 9.8
2015-Mar-26 01:33N 38°04' E 011°59'19 9.3
2015-Mar-25 23:33N 37°45' E 011°60'8910.7
2015-Mar-25 15:14N 36°21' E 012°36'  
Track history (hours):
 
Tides and Currents Weather Stations Pressure Air Temp Water Temp Dewpoint Dewpoint Depression Visibility Wind Speed Wind Dir Waves Ship Positions

Zeran (malta)

Last reported at 2015-Apr-01 16:16 UTC. Time now 2015-Apr-02 07:53 UTC.
Position N 42°40' E 009°47'.

Length 148 m; beam 24 m.

Type: Ship (hazmat cat A). MMSI: 249846000.

Date/timePositionNaut miles runAvg speedWind from/ knotsBaromVisibWave heightAir tempDewpointWater temp
2015-Apr-01 16:16N 42°40' E 009°47'7 9.9
2015-Apr-01 15:33N 42°47' E 009°45'10 9.8
2015-Apr-01 14:33N 42°56' E 009°41'10 9.7
2015-Apr-01 13:33N 43°05' E 009°37'10 9.6
2015-Apr-01 12:33N 43°14' E 009°31'9 9.5
2015-Apr-01 11:33N 43°23' E 009°27'10 9.7
2015-Apr-01 10:33N 43°32' E 009°22'10 9.6
2015-Apr-01 09:33N 43°41' E 009°18'10 9.6
2015-Apr-01 08:33N 43°50' E 009°13'1010.2
2015-Apr-01 07:33N 43°60' E 009°08'10 9.6
2015-Apr-01 06:34N 44°08' E 009°03'1010.1
2015-Apr-01 05:33N 44°18' E 008°59'8 7.8
2015-Apr-01 04:34N 44°24' E 008°52'0 0.1
2015-Apr-01 03:29N 44°24' E 008°53'0 0.0
2015-Apr-01 02:32N 44°24' E 008°53'0 0.0
2015-Apr-01 01:32N 44°24' E 008°53'0 0.0
2015-Apr-01 00:32N 44°24' E 008°53'0 0.0
2015-Mar-31 23:32N 44°24' E 008°53'0 0.0
2015-Mar-31 22:29N 44°24' E 008°53'0 0.0
2015-Mar-31 21:29N 44°24' E 008°53'0 0.0
2015-Mar-31 20:32N 44°24' E 008°53'0 0.0
2015-Mar-31 19:32N 44°24' E 008°53'0 0.0
2015-Mar-31 18:29N 44°24' E 008°53'0 0.0
2015-Mar-31 17:32N 44°24' E 008°53'0 0.0
2015-Mar-31 16:32N 44°24' E 008°53'0 0.0
2015-Mar-31 15:32N 44°24' E 008°53'0 0.0
2015-Mar-31 14:32N 44°24' E 008°53'0 0.0
2015-Mar-31 13:32N 44°24' E 008°53'0 0.0
2015-Mar-31 12:32N 44°24' E 008°53'0 0.0
2015-Mar-31 11:29N 44°24' E 008°53'0 0.0
2015-Mar-31 10:32N 44°24' E 008°53'0 0.0
2015-Mar-31 09:32N 44°24' E 008°53'0 0.0
2015-Mar-31 08:32N 44°24' E 008°53'0 0.0
2015-Mar-31 07:32N 44°24' E 008°53'0 0.0
2015-Mar-31 06:29N 44°24' E 008°53'0 0.0
2015-Mar-31 05:32N 44°24' E 008°53'0 0.0
2015-Mar-31 04:29N 44°24' E 008°53'0 0.0
2015-Mar-31 03:26N 44°24' E 008°53'0 0.0
2015-Mar-31 02:29N 44°24' E 008°53'0 0.0
2015-Mar-31 01:29N 44°24' E 008°53'0 0.0
2015-Mar-31 00:32N 44°24' E 008°53'0 0.0
2015-Mar-30 23:32N 44°24' E 008°53'0 0.0
2015-Mar-30 22:32N 44°24' E 008°53'0 0.0
2015-Mar-30 21:32N 44°24' E 008°53'0 0.0
2015-Mar-30 20:32N 44°24' E 008°53'0 0.0
2015-Mar-30 19:32N 44°24' E 008°53'0 0.0
2015-Mar-30 18:29N 44°24' E 008°53'0 0.0
2015-Mar-30 17:32N 44°24' E 008°53'0 0.0
2015-Mar-30 16:32N 44°24' E 008°53'0 0.0
2015-Mar-30 15:32N 44°24' E 008°53'0 0.0
2015-Mar-30 14:32N 44°24' E 008°53'0 0.0
2015-Mar-30 13:32N 44°24' E 008°53'0 0.0
2015-Mar-30 12:32N 44°24' E 008°53'0 0.0
2015-Mar-30 11:32N 44°24' E 008°53'0 0.0
2015-Mar-30 10:32N 44°24' E 008°53'0 0.0
2015-Mar-30 09:29N 44°24' E 008°53'0 0.0
2015-Mar-30 08:29N 44°24' E 008°53'0 0.0
2015-Mar-30 07:32N 44°24' E 008°53'0 0.0
2015-Mar-30 06:32N 44°24' E 008°53'0 0.0
2015-Mar-30 05:29N 44°24' E 008°53'0 0.0
2015-Mar-30 04:32N 44°24' E 008°53'0 0.0
2015-Mar-30 03:32N 44°24' E 008°53'0 0.0
2015-Mar-30 02:32N 44°24' E 008°53'0 0.0
2015-Mar-30 01:32N 44°24' E 008°53'0 0.0
2015-Mar-30 00:23N 44°24' E 008°53'0 0.0
2015-Mar-29 23:29N 44°24' E 008°53'0 0.0
2015-Mar-29 22:32N 44°24' E 008°53'0 0.0
2015-Mar-29 21:32N 44°24' E 008°53'0 0.0
2015-Mar-29 20:32N 44°24' E 008°53'0 0.0
2015-Mar-29 19:32N 44°24' E 008°53'0 0.0
2015-Mar-29 18:32N 44°24' E 008°53'0 0.0
2015-Mar-29 17:32N 44°24' E 008°53'0 0.0
2015-Mar-29 16:32N 44°24' E 008°53'0 0.0
2015-Mar-29 15:29N 44°24' E 008°53'0 0.0
2015-Mar-29 14:32N 44°24' E 008°53'0 0.0
2015-Mar-29 13:05N 44°24' E 008°53'0 0.0
2015-Mar-29 12:26N 44°24' E 008°53'0 0.0
2015-Mar-29 11:29N 44°24' E 008°53'0 0.0
2015-Mar-29 10:32N 44°24' E 008°53'0 0.0
2015-Mar-29 09:33N 44°24' E 008°53'0 0.0
2015-Mar-29 08:33N 44°24' E 008°53'0 0.3
2015-Mar-29 07:33N 44°24' E 008°53'8 7.8
2015-Mar-29 06:33N 44°18' E 008°60'9 9.4
2015-Mar-29 05:33N 44°09' E 009°04'7 7.3
2015-Mar-29 04:33N 44°02' E 009°08'5 5.1
2015-Mar-29 03:33N 43°58' E 009°11'5 5.3
2015-Mar-29 02:33N 43°53' E 009°12'6 5.6
2015-Mar-29 01:33N 43°47' E 009°15'6 5.8
2015-Mar-29 00:33N 43°42' E 009°18'6 5.8
2015-Mar-28 23:33N 43°37' E 009°21'6 5.7
2015-Mar-28 22:33N 43°31' E 009°23'6 6.0
2015-Mar-28 21:33N 43°26' E 009°26'6 6.4
2015-Mar-28 20:33N 43°20' E 009°30'7 6.6
2015-Mar-28 19:33N 43°13' E 009°32'7 7.1
2015-Mar-28 18:33N 43°07' E 009°35'7 6.8
2015-Mar-28 17:33N 43°00' E 009°38'7 7.1
2015-Mar-28 16:33N 42°54' E 009°42'8 7.7
2015-Mar-28 15:33N 42°47' E 009°46'9 8.0
2015-Mar-28 14:25N 42°38' E 009°50'7 8.0
2015-Mar-28 13:33N 42°32' E 009°54'8 7.9
2015-Mar-28 12:33N 42°25' E 009°58'153 9.0
2015-Mar-27 19:30N 40°54' E 012°44'2210.2
2015-Mar-27 17:18N 40°47' E 013°12'7 9.5
2015-Mar-27 16:31N 40°44' E 013°21'9 9.4
2015-Mar-27 15:33N 40°41' E 013°33'9 9.3
2015-Mar-27 14:33N 40°38' E 013°44'9 9.2
2015-Mar-27 13:33N 40°35' E 013°56'9 9.4
2015-Mar-27 12:33N 40°32' E 014°07'9 9.4
2015-Mar-27 11:33N 40°31' E 014°19'11 9.6
2015-Mar-27 10:22N 40°33' E 014°34'4 0.3
2015-Mar-26 21:13N 40°33' E 014°40'2 2.4
2015-Mar-26 20:20N 40°31' E 014°38'11 8.9
2015-Mar-26 19:07N 40°23' E 014°28'610.6
2015-Mar-26 18:33N 40°19' E 014°24'1110.8
2015-Mar-26 17:33N 40°11' E 014°14'1110.9
2015-Mar-26 16:33N 40°02' E 014°05'1110.7
2015-Mar-26 15:31N 39°54' E 013°56'3010.3
2015-Mar-26 12:33N 39°30' E 013°31'4410.0
2015-Mar-26 08:07N 38°57' E 012°53'1710.3
2015-Mar-26 06:26N 38°43' E 012°40'2110.8
2015-Mar-26 04:32N 38°26' E 012°24'1110.6
2015-Mar-26 03:32N 38°19' E 012°14'10 9.9
2015-Mar-26 02:33N 38°11' E 012°07'10 9.8
2015-Mar-26 01:33N 38°04' E 011°59'19 9.3
2015-Mar-25 23:33N 37°45' E 011°60'8910.7
2015-Mar-25 15:14N 36°21' E 012°36'  

Dump ship's entire track history